Time;durP1;ratioP1;P1;durP2;ratioP2;P2;SDS_P1;SDS_P2;PMS_P1;PMS_P2;Temp;Humidity;BMP_temperature;BMP_pressure;BME280_temperature;BME280_humidity;BME280_pressure;Samples;Min_cycle;Max_cycle;Signal;HPM_P1;HPM_P2
2022/05/10 00:01:41;;;;;;;10.10;7.63;;;9.70;99.90;;;;;;4199198;28;20167;-69
2022/05/10 00:03:42;;;;;;;11.33;8.47;;;9.70;99.90;;;;;;4199473;28;20314;-68
2022/05/10 00:05:43;;;;;;;13.50;8.43;;;9.80;99.90;;;;;;4198404;28;20172;-69
2022/05/10 00:07:43;;;;;;;10.13;8.50;;;9.70;99.90;;;;;;4199306;28;20193;-69
2022/05/10 00:09:44;;;;;;;11.23;8.87;;;9.70;99.90;;;;;;4199264;28;20238;-69
2022/05/10 00:11:45;;;;;;;11.33;8.53;;;9.70;99.90;;;;;;4199173;28;20309;-69
2022/05/10 00:13:45;;;;;;;11.37;8.00;;;9.60;99.90;;;;;;4199320;28;20738;-69
2022/05/10 00:15:47;;;;;;;11.60;8.10;;;9.60;99.90;;;;;;4198559;28;20187;-69
2022/05/10 00:17:48;;;;;;;11.00;8.17;;;9.50;99.90;;;;;;4199189;28;20208;-69
2022/05/10 00:19:49;;;;;;;10.80;8.87;;;9.50;99.90;;;;;;4198851;28;20188;-69
2022/05/10 00:21:49;;;;;;;11.27;8.30;;;9.50;99.90;;;;;;4199467;28;20198;-69
2022/05/10 00:23:51;;;;;;;10.80;8.07;;;9.50;99.90;;;;;;4198672;28;20802;-69
2022/05/10 00:25:51;;;;;;;11.20;8.10;;;9.50;99.90;;;;;;4198661;28;20566;-68
2022/05/10 00:27:52;;;;;;;8.67;7.27;;;9.50;99.90;;;;;;4197521;28;20275;-69
2022/05/10 00:29:53;;;;;;;10.63;7.83;;;9.50;99.90;;;;;;4198722;28;20605;-69
2022/05/10 00:31:53;;;;;;;10.50;7.63;;;9.40;99.90;;;;;;4198636;28;20711;-69
2022/05/10 00:33:54;;;;;;;8.73;6.90;;;9.40;99.90;;;;;;4199443;28;20183;-69
2022/05/10 00:35:55;;;;;;;11.67;8.57;;;9.30;99.90;;;;;;4198414;28;20605;-69
2022/05/10 00:37:59;;;;;;;12.90;8.17;;;9.30;99.90;;;;;;4198909;28;20179;-69
2022/05/10 00:39:59;;;;;;;9.87;7.80;;;9.30;99.90;;;;;;4199055;28;20444;-69
2022/05/10 00:42:16;;;;;;;9.67;7.43;;;9.20;99.90;;;;;;4198873;28;21002;-69
2022/05/10 00:44:29;;;;;;;10.73;7.33;;;9.20;99.90;;;;;;4198652;28;20833;-69
2022/05/10 00:46:37;;;;;;;11.43;8.17;;;9.20;99.90;;;;;;4198388;28;20426;-69
2022/05/10 00:49:00;;;;;;;10.43;8.03;;;9.20;99.90;;;;;;4198449;28;20669;-69
2022/05/10 00:51:15;;;;;;;10.03;7.50;;;9.10;99.90;;;;;;4198719;28;20274;-69
2022/05/10 00:53:36;;;;;;;9.87;6.70;;;9.20;99.90;;;;;;4198771;28;20201;-68
2022/05/10 00:55:43;;;;;;;10.13;7.97;;;9.20;99.90;;;;;;4198313;28;20505;-69
2022/05/10 00:57:54;;;;;;;10.70;8.07;;;9.20;99.90;;;;;;4198645;28;20176;-69
2022/05/10 01:00:10;;;;;;;9.87;7.80;;;9.10;99.90;;;;;;4197378;28;20292;-69
2022/05/10 01:02:52;;;;;;;10.50;8.13;;;9.10;99.90;;;;;;4198753;28;20428;-69
2022/05/10 01:04:57;;;;;;;11.10;9.03;;;9.00;99.90;;;;;;4179444;28;20616;-69
2022/05/10 01:07:26;;;;;;;11.40;8.13;;;9.00;99.90;;;;;;4181892;28;20180;-69
2022/05/10 01:09:49;;;;;;;10.33;8.30;;;9.00;99.90;;;;;;4182064;28;20181;-69
2022/05/10 01:11:58;;;;;;;10.97;8.30;;;9.00;99.90;;;;;;4182177;28;20580;-69
2022/05/10 01:14:19;;;;;;;10.67;8.13;;;8.90;99.90;;;;;;4180726;28;20992;-68
2022/05/10 01:16:22;;;;;;;11.37;9.00;;;9.00;99.90;;;;;;4179028;28;20422;-69
2022/05/10 01:18:23;;;;;;;10.87;8.17;;;8.90;99.90;;;;;;4179526;28;20434;-69
2022/05/10 01:20:40;;;;;;;10.67;7.47;;;8.90;99.90;;;;;;4179353;28;20247;-69
2022/05/10 01:22:53;;;;;;;10.57;7.57;;;8.90;99.90;;;;;;4179529;28;20242;-69
2022/05/10 01:25:18;;;;;;;12.03;9.03;;;8.90;99.90;;;;;;4182201;28;20213;-69
2022/05/10 01:27:51;;;;;;;11.53;8.13;;;8.80;99.90;;;;;;4178826;28;20418;-69
2022/05/10 01:30:09;;;;;;;12.03;8.67;;;8.80;99.90;;;;;;4158752;28;20805;-69
2022/05/10 01:34:40;;;;;;;10.77;8.03;;;8.80;99.90;;;;;;4179940;28;20304;-69
2022/05/10 01:36:50;;;;;;;11.33;8.90;;;8.80;99.90;;;;;;4178918;28;20435;-69
2022/05/10 01:39:04;;;;;;;13.57;9.07;;;8.80;99.90;;;;;;4179317;28;20432;-69
2022/05/10 01:41:30;;;;;;;12.80;8.93;;;8.80;99.90;;;;;;4179635;28;20437;-69
2022/05/10 01:43:50;;;;;;;11.00;8.60;;;8.70;99.90;;;;;;4179311;28;20428;-69
2022/05/10 01:46:03;;;;;;;10.53;8.13;;;8.70;99.90;;;;;;4178960;28;20414;-69
2022/05/10 01:48:05;;;;;;;11.77;8.57;;;8.60;99.90;;;;;;4179478;28;20415;-69
2022/05/10 01:50:13;;;;;;;11.40;8.40;;;8.60;99.90;;;;;;4179355;28;20439;-69
2022/05/10 01:52:29;;;;;;;11.13;8.33;;;8.60;99.90;;;;;;4179261;28;20410;-69
2022/05/10 01:54:48;;;;;;;11.87;8.80;;;8.50;99.90;;;;;;4179566;28;20445;-69
2022/05/10 01:56:48;;;;;;;9.93;7.37;;;8.50;99.90;;;;;;4178869;28;20423;-69
2022/05/10 01:58:49;;;;;;;13.03;9.13;;;8.50;99.90;;;;;;4179304;28;20415;-69
2022/05/10 02:00:56;;;;;;;13.43;8.77;;;8.50;99.90;;;;;;4179548;28;20244;-71
2022/05/10 02:03:26;;;;;;;11.43;8.00;;;8.40;99.90;;;;;;4179140;28;20652;-69
2022/05/10 02:05:36;;;;;;;10.00;8.23;;;8.40;99.90;;;;;;4178301;28;20431;-69
2022/05/10 02:07:42;;;;;;;12.50;9.50;;;8.40;99.90;;;;;;4178964;28;20409;-69
2022/05/10 02:09:49;;;;;;;13.03;9.30;;;8.30;99.90;;;;;;4178716;28;20519;-69
2022/05/10 02:11:55;;;;;;;12.90;9.17;;;8.40;99.90;;;;;;4179339;28;20403;-69
2022/05/10 02:14:04;;;;;;;12.87;8.93;;;8.40;99.90;;;;;;4178977;28;20434;-69
2022/05/10 02:16:16;;;;;;;12.33;7.93;;;8.30;99.90;;;;;;4176154;28;20453;-69
2022/05/10 02:18:26;;;;;;;11.60;8.17;;;8.40;99.90;;;;;;4191338;28;20425;-69
2022/05/10 02:20:34;;;;;;;13.53;9.80;;;8.40;99.90;;;;;;4195310;28;20485;-69
2022/05/10 02:22:53;;;;;;;11.87;9.30;;;8.40;99.90;;;;;;4195327;28;20838;-70
2022/05/10 02:25:01;;;;;;;12.70;8.33;;;8.30;99.90;;;;;;4195104;28;20481;-69
2022/05/10 02:27:06;;;;;;;9.77;8.37;;;8.30;99.90;;;;;;4194656;28;20460;-69
2022/05/10 02:29:23;;;;;;;11.87;8.70;;;8.30;99.90;;;;;;4195324;28;20409;-69
2022/05/10 02:31:31;;;;;;;16.67;8.70;;;8.30;99.90;;;;;;4193816;28;20457;-70
2022/05/10 02:33:31;;;;;;;13.80;8.63;;;8.20;99.90;;;;;;4195008;28;20426;-69
2022/05/10 02:35:56;;;;;;;10.97;8.07;;;8.10;99.90;;;;;;4194693;28;20418;-69
2022/05/10 02:37:56;;;;;;;10.47;7.80;;;8.20;99.90;;;;;;4192899;28;21011;-68
2022/05/10 02:39:58;;;;;;;13.80;9.40;;;8.20;99.90;;;;;;4195102;28;20516;-69
2022/05/10 02:42:00;;;;;;;11.93;8.87;;;8.20;99.90;;;;;;4195372;28;20168;-68
2022/05/10 02:44:01;;;;;;;12.57;8.97;;;8.30;99.90;;;;;;4195038;28;20975;-68
2022/05/10 02:46:02;;;;;;;13.33;10.33;;;8.30;99.90;;;;;;4194312;28;20914;-68
2022/05/10 02:48:03;;;;;;;13.57;8.67;;;8.20;99.90;;;;;;4195288;28;20406;-68
2022/05/10 02:50:07;;;;;;;13.77;9.87;;;8.20;99.90;;;;;;4195226;28;20456;-68
2022/05/10 02:52:08;;;;;;;11.97;9.23;;;8.10;99.90;;;;;;4195117;28;20184;-68
2022/05/10 02:54:08;;;;;;;12.03;8.63;;;8.10;99.90;;;;;;4195171;28;20413;-69
2022/05/10 02:56:12;;;;;;;13.50;9.50;;;8.20;99.90;;;;;;4194387;28;20187;-69
2022/05/10 02:58:43;;;;;;;11.23;9.13;;;8.20;99.90;;;;;;4194961;28;20184;-69
2022/05/10 03:00:45;;;;;;;12.67;9.13;;;8.20;99.90;;;;;;4194905;28;20438;-68
2022/05/10 03:02:50;;;;;;;12.03;9.17;;;8.10;99.90;;;;;;4194799;28;20849;-69
2022/05/10 03:04:56;;;;;;;12.90;8.50;;;8.10;99.90;;;;;;4194893;28;21000;-68
2022/05/10 03:06:57;;;;;;;13.87;8.80;;;8.00;99.90;;;;;;4194609;28;20419;-68
2022/05/10 03:08:58;;;;;;;13.47;10.03;;;8.10;99.90;;;;;;4194601;28;20457;-68
2022/05/10 03:10:59;;;;;;;12.40;9.40;;;8.10;99.90;;;;;;4194740;28;20901;-69
2022/05/10 03:13:01;;;;;;;10.60;8.40;;;8.10;99.90;;;;;;4195021;28;20426;-69
2022/05/10 03:15:03;;;;;;;13.80;9.67;;;8.10;99.90;;;;;;4194764;28;20418;-69
2022/05/10 03:17:04;;;;;;;11.27;8.53;;;8.00;99.90;;;;;;4194244;28;20414;-69
2022/05/10 03:19:05;;;;;;;12.23;8.50;;;8.00;99.90;;;;;;4194896;28;20939;-68
2022/05/10 03:21:05;;;;;;;12.70;9.57;;;8.10;99.90;;;;;;4195582;28;20218;-68
2022/05/10 03:23:06;;;;;;;12.57;9.50;;;8.10;99.90;;;;;;4196545;28;20229;-70
2022/05/10 03:25:07;;;;;;;11.57;8.93;;;8.00;99.90;;;;;;4196557;28;20580;-69
2022/05/10 03:27:09;;;;;;;12.17;9.80;;;8.00;99.90;;;;;;4196259;28;20207;-69
2022/05/10 03:29:10;;;;;;;12.13;8.77;;;8.00;99.90;;;;;;4196971;28;20896;-69
2022/05/10 03:31:13;;;;;;;10.20;8.30;;;7.90;99.90;;;;;;4196380;28;20468;-69
2022/05/10 03:33:14;;;;;;;13.87;8.90;;;7.90;99.90;;;;;;4195255;28;20176;-70
2022/05/10 03:35:16;;;;;;;10.33;8.33;;;7.80;99.90;;;;;;4196669;28;20506;-69
2022/05/10 03:37:17;;;;;;;11.53;8.67;;;7.90;99.90;;;;;;4195389;28;20634;-69
2022/05/10 03:39:17;;;;;;;11.70;8.67;;;7.90;99.90;;;;;;4197238;28;20463;-69
2022/05/10 03:41:18;;;;;;;10.27;8.03;;;7.80;99.90;;;;;;4197129;28;20195;-69
2022/05/10 03:43:18;;;;;;;10.23;7.67;;;7.80;99.90;;;;;;4197381;28;20188;-69
2022/05/10 03:45:22;;;;;;;10.73;8.53;;;7.70;99.90;;;;;;4196874;28;20211;-69
2022/05/10 03:47:26;;;;;;;12.40;9.53;;;7.80;99.90;;;;;;4197056;28;20176;-69
2022/05/10 03:49:27;;;;;;;15.00;9.47;;;7.80;99.90;;;;;;4198167;28;20410;-69
2022/05/10 03:51:29;;;;;;;10.50;8.47;;;7.90;99.90;;;;;;4200466;28;20429;-69
2022/05/10 03:53:29;;;;;;;14.80;9.30;;;7.90;99.90;;;;;;4200239;28;20421;-69
2022/05/10 03:55:30;;;;;;;11.77;8.67;;;7.90;99.90;;;;;;4199618;28;20912;-69
2022/05/10 03:57:30;;;;;;;12.27;8.57;;;7.90;99.90;;;;;;4200205;28;20180;-69
2022/05/10 03:59:31;;;;;;;10.73;8.30;;;7.90;99.90;;;;;;4200286;28;20183;-69
2022/05/10 04:01:31;;;;;;;13.20;9.13;;;7.90;99.90;;;;;;4199926;28;20204;-69
2022/05/10 04:03:32;;;;;;;13.20;9.47;;;7.80;99.90;;;;;;4199751;28;20745;-69
2022/05/10 04:05:32;;;;;;;14.13;9.83;;;7.90;99.90;;;;;;4199405;28;20182;-69
2022/05/10 04:07:33;;;;;;;14.10;9.43;;;7.80;99.90;;;;;;4199931;28;20564;-69
2022/05/10 04:09:34;;;;;;;12.27;9.03;;;7.90;99.90;;;;;;4199763;28;20182;-68
2022/05/10 04:11:35;;;;;;;13.53;9.83;;;7.90;99.90;;;;;;4198998;28;20875;-69
2022/05/10 04:13:37;;;;;;;13.80;9.30;;;7.90;99.90;;;;;;4199671;28;20202;-69
2022/05/10 04:15:38;;;;;;;13.30;9.10;;;7.90;99.90;;;;;;4199329;28;20191;-69
2022/05/10 04:17:38;;;;;;;11.70;8.93;;;8.00;99.90;;;;;;4199762;28;20421;-69
2022/05/10 04:19:39;;;;;;;12.57;9.80;;;8.00;99.90;;;;;;4199716;28;20190;-69
2022/05/10 04:21:39;;;;;;;11.77;9.43;;;8.00;99.90;;;;;;4199780;28;20677;-69
2022/05/10 04:23:40;;;;;;;12.80;9.87;;;8.00;99.90;;;;;;4199817;28;20214;-69
2022/05/10 04:25:40;;;;;;;13.00;9.43;;;8.10;99.90;;;;;;4199222;28;20248;-69
2022/05/10 04:27:41;;;;;;;13.90;9.20;;;8.10;99.90;;;;;;4200074;28;20177;-69
2022/05/10 04:29:41;;;;;;;14.03;10.10;;;8.20;99.90;;;;;;4199742;28;20663;-69
2022/05/10 04:31:42;;;;;;;14.13;9.60;;;8.20;99.90;;;;;;4198753;28;20239;-69
2022/05/10 04:33:42;;;;;;;13.77;8.67;;;8.30;99.90;;;;;;4199386;28;20179;-69
2022/05/10 04:35:43;;;;;;;13.57;8.97;;;8.40;99.90;;;;;;4198718;28;20180;-69
2022/05/10 04:37:43;;;;;;;13.27;10.43;;;8.40;99.90;;;;;;4199368;28;20235;-69
2022/05/10 04:42:03;;;;;;;14.97;9.93;;;8.50;99.90;;;;;;4199398;28;20294;-69
2022/05/10 04:44:09;;;;;;;11.93;9.03;;;8.60;99.90;;;;;;4198024;28;20510;-69
2022/05/10 04:46:10;;;;;;;11.57;8.93;;;8.60;99.90;;;;;;4198649;28;20188;-69
2022/05/10 04:48:11;;;;;;;12.93;8.90;;;8.60;99.90;;;;;;4199467;28;20711;-69
2022/05/10 04:50:12;;;;;;;13.97;9.77;;;8.60;99.90;;;;;;4199589;28;20443;-69
2022/05/10 04:52:13;;;;;;;12.73;9.13;;;8.70;99.90;;;;;;4198843;28;20272;-69
2022/05/10 04:54:13;;;;;;;11.73;9.30;;;8.80;99.90;;;;;;4198227;28;20196;-69
2022/05/10 04:56:14;;;;;;;12.93;9.23;;;8.80;99.90;;;;;;4197681;28;20220;-69
2022/05/10 04:58:15;;;;;;;11.87;8.33;;;8.90;99.90;;;;;;4198183;28;20184;-69
2022/05/10 05:00:16;;;;;;;10.70;8.03;;;8.90;99.90;;;;;;4198190;28;20733;-68
2022/05/10 05:02:17;;;;;;;10.60;7.87;;;8.90;99.90;;;;;;4197430;28;20483;-69
2022/05/10 05:04:17;;;;;;;10.03;8.17;;;9.00;99.90;;;;;;4198012;28;20465;-69
2022/05/10 05:06:18;;;;;;;11.03;9.00;;;9.00;99.90;;;;;;4197516;28;20179;-69
2022/05/10 05:08:18;;;;;;;10.87;8.53;;;9.10;99.90;;;;;;4197795;28;20174;-69
2022/05/10 05:10:19;;;;;;;10.90;8.90;;;9.20;99.90;;;;;;4198067;28;20194;-69
2022/05/10 05:12:19;;;;;;;9.50;8.07;;;9.20;99.90;;;;;;4196240;28;20187;-69
2022/05/10 05:14:20;;;;;;;10.23;7.97;;;9.30;99.90;;;;;;4195953;28;20182;-69
2022/05/10 05:16:20;;;;;;;9.70;7.63;;;9.30;99.90;;;;;;4194784;28;20787;-69
2022/05/10 05:18:21;;;;;;;9.73;7.53;;;9.40;99.90;;;;;;4195887;28;20186;-69
2022/05/10 05:20:22;;;;;;;10.77;8.30;;;9.50;99.90;;;;;;4195689;28;20608;-69
2022/05/10 05:22:23;;;;;;;11.20;8.40;;;9.50;99.90;;;;;;4196083;28;20168;-69
2022/05/10 05:24:23;;;;;;;10.13;8.63;;;9.50;99.90;;;;;;4195617;28;20212;-69
2022/05/10 05:26:24;;;;;;;11.73;8.03;;;9.60;99.90;;;;;;4196347;28;20188;-69
2022/05/10 05:28:25;;;;;;;9.37;7.93;;;9.70;99.90;;;;;;4198216;28;20251;-69
2022/05/10 05:30:25;;;;;;;9.17;8.13;;;9.80;99.90;;;;;;4198549;28;20203;-69
2022/05/10 05:32:33;;;;;;;11.50;9.03;;;9.90;99.90;;;;;;4198259;28;20216;-69
2022/05/10 05:34:35;;;;;;;11.97;8.10;;;10.00;99.90;;;;;;4198225;28;20576;-69
2022/05/10 05:36:35;;;;;;;11.07;9.10;;;10.10;99.90;;;;;;4198139;28;20172;-69
2022/05/10 05:38:36;;;;;;;10.30;7.80;;;10.20;99.90;;;;;;4198888;28;20213;-69
2022/05/10 05:40:37;;;;;;;11.03;8.53;;;10.30;99.90;;;;;;4198773;28;20188;-69
2022/05/10 05:42:38;;;;;;;10.13;8.17;;;10.40;99.90;;;;;;4197432;28;20184;-69
2022/05/10 05:44:39;;;;;;;12.03;8.67;;;10.40;99.90;;;;;;4195627;28;20199;-69
2022/05/10 05:46:39;;;;;;;10.47;8.33;;;10.60;99.90;;;;;;4194873;28;20637;-69
2022/05/10 05:48:40;;;;;;;9.47;7.77;;;10.70;99.90;;;;;;4195644;28;20764;-69
2022/05/10 05:50:40;;;;;;;13.87;9.60;;;10.80;99.90;;;;;;4195811;28;20195;-69
2022/05/10 05:52:42;;;;;;;12.70;9.23;;;10.90;99.90;;;;;;4195348;28;20176;-69
2022/05/10 05:54:44;;;;;;;10.63;9.07;;;11.10;99.90;;;;;;4195263;28;20282;-69
2022/05/10 05:56:44;;;;;;;11.27;8.77;;;11.20;99.90;;;;;;4194566;28;20820;-69
2022/05/10 05:58:45;;;;;;;11.10;8.43;;;11.20;99.90;;;;;;4195321;28;20226;-69
2022/05/10 06:00:45;;;;;;;9.20;7.77;;;11.30;99.90;;;;;;4195181;28;20204;-69
2022/05/10 06:02:46;;;;;;;11.80;7.97;;;11.50;99.90;;;;;;4194123;28;20238;-69
2022/05/10 06:04:47;;;;;;;9.83;8.10;;;11.50;99.90;;;;;;4195422;28;20300;-69
2022/05/10 06:06:47;;;;;;;9.57;8.07;;;11.70;99.90;;;;;;4194662;28;20730;-69
2022/05/10 06:08:48;;;;;;;10.70;8.13;;;11.80;99.90;;;;;;4195091;28;20902;-69
2022/05/10 06:10:50;;;;;;;9.10;7.87;;;11.90;99.90;;;;;;4193746;28;20212;-69
2022/05/10 06:12:51;;;;;;;9.37;7.57;;;12.00;99.90;;;;;;4195022;28;20262;-69
2022/05/10 06:14:51;;;;;;;8.60;7.13;;;12.20;99.90;;;;;;4195082;28;20191;-69
2022/05/10 06:16:56;;;;;;;9.40;7.67;;;12.20;99.90;;;;;;4194473;28;20175;-69
2022/05/10 06:18:56;;;;;;;7.70;6.93;;;12.40;99.90;;;;;;4195268;28;20176;-69
2022/05/10 06:20:57;;;;;;;9.10;7.43;;;12.50;99.90;;;;;;4194987;28;20290;-69
2022/05/10 06:22:57;;;;;;;10.47;7.10;;;12.50;99.90;;;;;;4195117;28;20206;-69
2022/05/10 06:24:58;;;;;;;8.87;7.83;;;12.70;99.90;;;;;;4194642;28;20257;-69
2022/05/10 06:26:58;;;;;;;7.63;6.90;;;12.80;99.90;;;;;;4194527;28;20204;-69
2022/05/10 06:28:59;;;;;;;9.50;7.73;;;13.00;99.90;;;;;;4194906;28;20698;-69
2022/05/10 06:31:02;;;;;;;16.77;7.43;;;13.20;99.90;;;;;;4195116;28;20199;-69
2022/05/10 06:33:02;;;;;;;9.87;7.63;;;13.30;99.90;;;;;;4195171;28;20168;-69
2022/05/10 06:35:04;;;;;;;9.07;7.43;;;13.40;99.90;;;;;;4194820;28;20222;-69
2022/05/10 06:38:15;;;;;;;8.17;6.73;;;13.70;99.90;;;;;;4194442;28;20282;-69
2022/05/10 06:39:26;;;;;;;7.60;6.80;;;13.90;99.90;;;;;;4194782;28;20253;-68
2022/05/10 06:41:26;;;;;;;8.23;7.37;;;14.10;99.90;;;;;;4194966;28;20198;-69
2022/05/10 06:43:28;;;;;;;8.47;6.83;;;14.30;99.90;;;;;;4195019;28;20274;-69
2022/05/10 06:45:29;;;;;;;8.10;6.13;;;14.50;99.90;;;;;;4194126;28;20297;-69
2022/05/10 06:47:29;;;;;;;10.50;6.93;;;14.60;99.20;;;;;;4194769;28;20286;-68
2022/05/10 06:49:30;;;;;;;8.90;6.73;;;14.80;98.80;;;;;;4194974;28;20211;-69
2022/05/10 06:51:32;;;;;;;6.77;6.07;;;14.80;99.20;;;;;;4194965;28;20196;-68
2022/05/10 06:53:33;;;;;;;7.83;6.27;;;15.10;99.20;;;;;;4194970;28;20183;-69
2022/05/10 06:55:35;;;;;;;7.20;6.50;;;15.20;98.60;;;;;;4194333;28;20183;-69
2022/05/10 06:57:36;;;;;;;6.83;5.87;;;15.20;97.60;;;;;;4194779;28;20184;-69
2022/05/10 06:59:37;;;;;;;6.73;5.80;;;15.40;98.10;;;;;;4194649;28;20198;-69
2022/05/10 07:01:37;;;;;;;8.10;6.30;;;15.50;96.80;;;;;;4194565;28;20552;-69
2022/05/10 07:03:44;;;;;;;7.77;6.03;;;15.70;96.30;;;;;;4194882;28;20187;-68
2022/05/10 07:05:45;;;;;;;6.80;5.87;;;15.90;95.90;;;;;;4194194;28;20527;-70
2022/05/10 07:07:46;;;;;;;6.33;5.73;;;16.10;95.50;;;;;;4194688;28;20183;-70
2022/05/10 07:09:47;;;;;;;7.03;5.70;;;16.20;95.20;;;;;;4194209;28;20175;-67
2022/05/10 07:11:47;;;;;;;7.63;6.17;;;16.40;94.50;;;;;;4194561;28;20191;-67
2022/05/10 07:13:48;;;;;;;6.37;5.77;;;16.60;93.60;;;;;;4192841;28;20180;-67
2022/05/10 07:15:49;;;;;;;6.03;4.70;;;16.70;93.00;;;;;;4192884;28;20180;-67
2022/05/10 07:17:52;;;;;;;5.73;5.13;;;17.00;91.70;;;;;;4194072;28;20969;-67
2022/05/10 07:19:53;;;;;;;6.73;5.23;;;17.10;91.00;;;;;;4194321;28;20258;-67
2022/05/10 07:21:53;;;;;;;6.27;4.90;;;17.20;89.60;;;;;;4194356;28;20199;-67
2022/05/10 07:23:54;;;;;;;6.37;5.03;;;17.30;90.00;;;;;;4194210;28;20183;-67
2022/05/10 07:25:55;;;;;;;6.87;5.47;;;17.60;86.90;;;;;;4196498;28;20681;-67
2022/05/10 07:27:57;;;;;;;5.90;5.30;;;17.70;86.50;;;;;;4197669;28;20742;-67
2022/05/10 07:29:57;;;;;;;5.37;4.87;;;17.70;86.00;;;;;;4197825;28;20238;-67
2022/05/10 07:31:57;;;;;;;5.57;4.77;;;17.80;84.60;;;;;;4197788;28;20547;-67
2022/05/10 07:33:58;;;;;;;5.10;4.70;;;18.00;81.40;;;;;;4197689;28;20184;-67
2022/05/10 07:38:18;;;;;;;4.90;4.50;;;18.50;76.00;;;;;;4197464;28;20276;-67
2022/05/10 07:40:19;;;;;;;5.73;5.10;;;18.60;70.90;;;;;;4197492;28;20579;-67
2022/05/10 07:42:19;;;;;;;4.97;4.40;;;18.70;71.80;;;;;;4197501;28;20179;-67
2022/05/10 07:44:22;;;;;;;5.23;4.63;;;18.60;65.30;;;;;;4197427;28;20207;-67
2022/05/10 07:46:24;;;;;;;5.60;4.33;;;18.60;67.30;;;;;;4196803;28;20754;-67
2022/05/10 07:48:24;;;;;;;5.63;4.80;;;18.60;69.00;;;;;;4197549;28;20581;-67
2022/05/10 07:50:25;;;;;;;5.53;4.57;;;18.80;67.50;;;;;;4197577;28;20211;-67
2022/05/10 07:52:26;;;;;;;4.10;3.80;;;18.80;67.80;;;;;;4197299;28;20179;-67
2022/05/10 07:54:28;;;;;;;6.50;4.37;;;19.10;63.20;;;;;;4197258;28;20533;-67
2022/05/10 07:56:28;;;;;;;9.10;4.77;;;19.20;62.30;;;;;;4196673;28;20233;-67
2022/05/10 07:58:30;;;;;;;5.80;4.20;;;19.10;62.30;;;;;;4197192;28;20715;-67
2022/05/10 08:00:32;;;;;;;4.60;4.10;;;19.20;64.60;;;;;;4197083;28;20238;-67
2022/05/10 08:02:32;;;;;;;11.30;8.73;;;19.20;63.20;;;;;;4196839;28;20271;-67
2022/05/10 08:04:33;;;;;;;5.47;4.80;;;19.20;62.60;;;;;;4197187;28;20207;-67
2022/05/10 08:06:34;;;;;;;4.67;4.00;;;19.20;61.50;;;;;;4196367;28;20184;-67
2022/05/10 08:08:35;;;;;;;4.37;3.97;;;19.10;62.80;;;;;;4196946;28;20177;-67
2022/05/10 08:10:36;;;;;;;4.60;4.20;;;19.20;63.50;;;;;;4197220;28;20187;-67
2022/05/10 08:12:37;;;;;;;6.47;4.90;;;19.30;63.50;;;;;;4196856;28;20607;-67
2022/05/10 08:14:38;;;;;;;5.17;4.33;;;19.40;67.20;;;;;;4196924;28;20175;-67
2022/05/10 08:16:39;;;;;;;5.70;4.80;;;19.40;67.20;;;;;;4196199;28;20186;-67
2022/05/10 08:18:41;;;;;;;5.40;4.90;;;19.20;64.90;;;;;;4196572;28;20183;-67
2022/05/10 08:20:42;;;;;;;5.87;4.20;;;19.10;64.30;;;;;;4196758;28;20207;-67
2022/05/10 08:22:43;;;;;;;4.63;3.57;;;19.20;64.60;;;;;;4196799;28;20562;-67
2022/05/10 08:24:43;;;;;;;5.13;4.20;;;19.40;62.30;;;;;;4196564;28;20215;-67
2022/05/10 08:26:44;;;;;;;4.37;3.97;;;19.30;62.60;;;;;;4196077;28;20553;-67
2022/05/10 08:28:44;;;;;;;4.60;4.20;;;19.40;62.40;;;;;;4196667;28;20184;-67
2022/05/10 08:30:48;;;;;;;4.87;3.70;;;19.70;59.50;;;;;;4197017;28;20200;-67
2022/05/10 08:32:49;;;;;;;4.40;4.00;;;20.10;55.50;;;;;;4196595;28;20681;-67
2022/05/10 08:34:49;;;;;;;4.23;3.83;;;20.30;56.80;;;;;;4196412;28;20179;-67
2022/05/10 08:36:50;;;;;;;4.23;3.63;;;19.90;55.30;;;;;;4194986;28;20188;-67
2022/05/10 08:38:50;;;;;;;4.00;3.60;;;19.90;54.70;;;;;;4197095;28;20218;-67
2022/05/10 08:41:41;;;;;;;5.60;4.37;;;20.10;59.30;;;;;;4196780;28;20203;-66
2022/05/10 08:43:54;;;;;;;4.67;4.23;;;20.00;59.80;;;;;;4178758;28;20247;-67
2022/05/10 08:45:56;;;;;;;4.27;3.87;;;19.80;62.50;;;;;;4188953;28;20276;-67
2022/05/10 08:47:56;;;;;;;4.87;3.90;;;20.00;58.70;;;;;;4196612;28;20175;-67
2022/05/10 08:50:09;;;;;;;4.30;3.90;;;20.00;66.00;;;;;;4196704;28;20203;-67
2022/05/10 08:52:12;;;;;;;4.83;3.60;;;20.10;59.10;;;;;;4196791;28;20241;-67
2022/05/10 08:54:13;;;;;;;4.67;4.27;;;20.50;53.70;;;;;;4196568;28;20225;-67
2022/05/10 08:56:18;;;;;;;3.87;3.57;;;20.60;52.10;;;;;;4195757;28;20865;-67
2022/05/10 08:58:59;;;;;;;4.07;3.77;;;20.40;57.90;;;;;;4196429;28;20172;-67
2022/05/10 09:01:04;;;;;;;4.40;4.00;;;20.30;54.80;;;;;;4183748;28;20559;-67
2022/05/10 09:03:42;;;;;;;5.27;3.50;;;20.40;57.50;;;;;;4196328;28;20188;-67
2022/05/10 09:05:44;;;;;;;3.73;3.40;;;20.80;59.00;;;;;;4195520;28;20283;-67
2022/05/10 09:08:08;;;;;;;3.90;3.50;;;20.90;54.70;;;;;;4196257;28;20267;-67
2022/05/10 09:10:22;;;;;;;3.33;3.03;;;20.80;51.30;;;;;;4196204;28;20246;-67
2022/05/10 09:12:24;;;;;;;3.93;3.53;;;20.90;49.00;;;;;;4196032;28;20198;-67
2022/05/10 09:14:34;;;;;;;4.00;3.40;;;21.20;48.20;;;;;;4196245;28;20187;-67
2022/05/10 09:16:34;;;;;;;3.77;3.40;;;21.60;45.60;;;;;;4195084;28;20187;-67
2022/05/10 09:18:50;;;;;;;3.83;3.53;;;21.40;45.80;;;;;;4195640;28;20188;-67
2022/05/10 09:21:14;;;;;;;3.50;3.20;;;21.00;47.70;;;;;;4196097;28;20207;-67
2022/05/10 09:23:32;;;;;;;3.60;3.30;;;21.00;47.60;;;;;;4195816;28;20198;-67
2022/05/10 09:25:34;;;;;;;5.57;3.60;;;21.10;46.10;;;;;;4195468;28;20219;-67
2022/05/10 09:27:35;;;;;;;3.87;3.47;;;21.10;46.90;;;;;;4195934;28;20546;-67
2022/05/10 09:29:47;;;;;;;3.70;3.40;;;20.90;53.00;;;;;;4195733;28;20237;-67
2022/05/10 09:36:30;;;;;;;5.03;3.73;;;21.40;56.80;;;;;;4195145;28;20187;-67
2022/05/10 09:38:32;;;;;;;3.70;3.40;;;21.90;50.00;;;;;;4195865;28;20190;-67
2022/05/10 09:40:40;;;;;;;3.77;3.43;;;21.70;49.70;;;;;;4195513;28;20212;-67
2022/05/10 09:42:45;;;;;;;4.10;3.70;;;21.60;50.40;;;;;;4196829;28;20183;-67
2022/05/10 09:44:56;;;;;;;4.67;4.10;;;21.40;51.00;;;;;;4197574;28;20211;-67
2022/05/10 09:47:14;;;;;;;4.07;3.70;;;21.30;49.50;;;;;;4197067;28;20661;-67
2022/05/10 09:49:37;;;;;;;4.90;3.97;;;21.50;51.50;;;;;;4198079;28;20175;-66
2022/05/10 09:51:41;;;;;;;6.20;4.30;;;21.90;49.30;;;;;;4198142;28;20557;-67
2022/05/10 09:53:41;;;;;;;5.10;4.17;;;21.70;51.00;;;;;;4198014;28;20940;-67
2022/05/10 09:55:58;;;;;;;4.83;4.30;;;21.70;57.20;;;;;;4197093;28;20184;-67
2022/05/10 09:58:22;;;;;;;4.33;3.87;;;21.60;55.80;;;;;;4197846;28;20222;-66
2022/05/10 10:00:45;;;;;;;4.03;3.73;;;21.50;58.10;;;;;;4197899;28;20234;-67
2022/05/10 10:02:56;;;;;;;5.17;3.93;;;21.70;52.70;;;;;;4197649;28;20568;-67
2022/05/10 10:04:57;;;;;;;5.73;3.50;;;21.50;56.80;;;;;;4197532;28;20227;-67
2022/05/10 10:07:06;;;;;;;5.27;3.80;;;21.70;56.60;;;;;;4197234;28;20240;-67
2022/05/10 10:09:07;;;;;;;4.23;3.83;;;22.00;55.70;;;;;;4197706;28;20175;-67
2022/05/10 10:11:26;;;;;;;4.87;4.33;;;22.00;52.90;;;;;;4197885;28;20200;-66
2022/05/10 10:13:32;;;;;;;4.17;3.77;;;21.70;50.70;;;;;;4197521;28;20172;-67
2022/05/10 10:15:43;;;;;;;5.90;3.73;;;21.70;53.30;;;;;;4197070;28;20581;-66
2022/05/10 10:17:54;;;;;;;4.73;3.93;;;21.90;50.70;;;;;;4197402;28;20662;-67
2022/05/10 10:20:01;;;;;;;4.83;4.23;;;22.30;49.50;;;;;;4197592;28;20202;-67
2022/05/10 10:22:19;;;;;;;5.30;4.30;;;22.80;48.10;;;;;;4197379;28;20203;-67
2022/05/10 10:24:29;;;;;;;7.00;6.30;;;23.50;46.90;;;;;;4197398;28;20254;-67
2022/05/10 10:26:44;;;;;;;5.40;4.60;;;23.70;44.70;;;;;;4196736;28;20625;-67
2022/05/10 10:29:04;;;;;;;6.57;4.13;;;24.00;44.00;;;;;;4197270;28;20229;-67
2022/05/10 10:31:18;;;;;;;4.53;4.13;;;24.20;43.80;;;;;;4197324;28;20203;-66
2022/05/10 10:33:20;;;;;;;4.60;4.10;;;25.30;42.40;;;;;;4197319;28;20214;-66
2022/05/10 10:35:42;;;;;;;5.00;4.10;;;25.30;41.90;;;;;;4196462;28;20192;-67
2022/05/10 10:37:50;;;;;;;3.60;3.30;;;25.00;42.30;;;;;;4197587;28;20195;-67
2022/05/10 10:40:07;;;;;;;4.23;3.90;;;25.40;40.70;;;;;;4197170;28;20258;-66
2022/05/10 10:42:31;;;;;;;5.80;4.10;;;25.50;39.30;;;;;;4197530;28;20649;-67
2022/05/10 10:44:36;;;;;;;4.10;3.60;;;25.40;40.40;;;;;;4197223;28;20204;-67
2022/05/10 10:47:07;;;;;;;4.57;4.10;;;25.50;40.20;;;;;;4196391;28;20180;-67
2022/05/10 10:49:13;;;;;;;4.47;4.07;;;25.50;41.60;;;;;;4197005;28;20226;-67
2022/05/10 10:51:15;;;;;;;5.10;3.77;;;24.70;39.10;;;;;;4196909;28;20191;-67
2022/05/10 10:53:15;;;;;;;3.80;3.50;;;23.80;40.90;;;;;;4197216;28;20260;-67
2022/05/10 10:55:18;;;;;;;5.33;3.83;;;23.50;43.50;;;;;;4197070;28;20232;-67
2022/05/10 10:57:36;;;;;;;4.10;3.70;;;25.00;40.80;;;;;;4196683;28;20182;-67
2022/05/10 10:59:54;;;;;;;3.97;3.67;;;25.90;39.00;;;;;;4196393;28;20519;-67
2022/05/10 11:02:09;;;;;;;4.10;3.50;;;26.60;38.50;;;;;;4196913;28;20960;-67
2022/05/10 11:04:40;;;;;;;3.73;3.43;;;27.00;37.20;;;;;;4197002;28;20207;-67